createdAt,value
2023-04-09T00:02:56.284Z,70.78
2023-04-09T00:08:01.590Z,70.94
2023-04-09T00:13:06.920Z,71.10
2023-04-09T00:18:12.284Z,71.42
2023-04-09T00:23:17.660Z,71.32
2023-04-09T00:28:23.052Z,71.44
2023-04-09T00:33:28.319Z,71.54
2023-04-09T00:38:33.823Z,71.80
2023-04-09T00:43:39.094Z,71.73
2023-04-09T00:48:45.043Z,71.95
2023-04-09T00:53:50.717Z,72.00
2023-04-09T00:58:58.647Z,72.03
2023-04-09T01:04:04.557Z,72.05
2023-04-09T01:09:18.035Z,72.21
2023-04-09T01:14:30.259Z,72.40
2023-04-09T01:19:48.940Z,72.36
2023-04-09T01:25:04.807Z,72.54
2023-04-09T01:30:12.600Z,72.70
2023-04-09T01:35:18.784Z,72.55
2023-04-09T01:40:24.373Z,73.09
2023-04-09T01:45:29.774Z,73.22
2023-04-09T01:50:35.643Z,73.40
2023-04-09T01:55:41.161Z,73.36
2023-04-09T02:00:48.937Z,73.86
2023-04-09T02:06:00.789Z,74.07
2023-04-09T02:11:09.494Z,74.11
2023-04-09T02:16:16.157Z,74.27
2023-04-09T02:21:21.923Z,74.64
2023-04-09T02:26:27.488Z,74.86
2023-04-09T02:31:32.833Z,74.67
2023-04-09T02:36:38.261Z,74.62
2023-04-09T02:41:44.107Z,74.94
2023-04-09T02:46:50.479Z,75.51
2023-04-09T02:51:56.010Z,75.78
2023-04-09T02:57:01.443Z,76.65
2023-04-09T03:02:06.863Z,77.83
2023-04-09T03:07:12.274Z,78.59
2023-04-09T03:12:17.703Z,79.27
2023-04-09T03:17:25.807Z,79.69
2023-04-09T03:22:35.450Z,79.95
2023-04-09T03:27:40.703Z,80.13
2023-04-09T03:32:46.100Z,80.60
2023-04-09T03:37:52.557Z,80.57
2023-04-09T03:42:57.952Z,80.77
2023-04-09T03:48:03.433Z,80.90
2023-04-09T03:53:08.887Z,81.05
2023-04-09T03:58:14.653Z,81.10
2023-04-09T04:03:20.062Z,81.38
2023-04-09T04:08:25.522Z,81.43
2023-04-09T04:13:30.940Z,81.62
2023-04-09T04:18:36.665Z,81.72
2023-04-09T04:23:42.202Z,81.97
2023-04-09T04:28:47.511Z,82.13
2023-04-09T04:33:52.867Z,82.33
2023-04-09T04:38:58.419Z,82.52
2023-04-09T04:44:03.741Z,82.81
2023-04-09T04:49:09.051Z,82.89
2023-04-09T04:54:14.349Z,83.02
2023-04-09T04:59:19.741Z,83.39
2023-04-09T05:04:25.058Z,83.50
2023-04-09T05:09:30.717Z,83.53
2023-04-09T05:14:36.331Z,83.75
2023-04-09T05:19:41.683Z,84.00
2023-04-09T05:24:47.057Z,84.16
2023-04-09T05:29:52.355Z,84.53
2023-04-09T05:34:57.749Z,84.50
2023-04-09T05:40:03.528Z,84.69
2023-04-09T05:45:10.852Z,85.00
2023-04-09T05:50:16.500Z,84.87
2023-04-09T05:55:21.868Z,85.21
2023-04-09T06:00:27.607Z,85.13
2023-04-09T06:05:33.224Z,85.44
2023-04-09T06:10:39.910Z,85.44
2023-04-09T06:15:46.359Z,85.42
2023-04-09T06:21:00.865Z,85.77
2023-04-09T06:26:06.494Z,85.62
2023-04-09T06:31:12.239Z,85.59
2023-04-09T06:36:17.773Z,85.60
2023-04-09T06:41:23.774Z,85.84
2023-04-09T06:46:29.461Z,85.77
2023-04-09T06:51:34.854Z,85.88
2023-04-09T06:56:40.342Z,86.20
2023-04-09T07:01:47.780Z,86.65
2023-04-09T07:06:54.809Z,86.27
2023-04-09T07:12:00.556Z,86.28
2023-04-09T07:17:06.054Z,85.91
2023-04-09T07:22:11.470Z,86.17
2023-04-09T07:27:16.738Z,86.71
2023-04-09T07:32:22.327Z,86.60
2023-04-09T07:37:27.815Z,86.24
2023-04-09T07:42:33.181Z,86.30
2023-04-09T07:47:38.949Z,86.12
2023-04-09T07:52:44.620Z,86.19
2023-04-09T07:57:51.753Z,86.29
2023-04-09T08:02:57.502Z,86.07
2023-04-09T08:08:03.627Z,86.01
2023-04-09T08:13:10.198Z,86.49
2023-04-09T08:18:17.321Z,86.52
2023-04-09T08:23:23.210Z,86.31
2023-04-09T08:28:28.733Z,85.88
2023-04-09T08:33:33.982Z,85.57
2023-04-09T08:38:39.631Z,85.59
2023-04-09T08:43:57.156Z,86.07
2023-04-09T09:16:35.934Z,85.35
2023-04-09T09:44:34.906Z,84.62
2023-04-09T09:49:40.326Z,84.43
2023-04-09T09:54:52.213Z,84.49
2023-04-09T10:00:01.376Z,84.17
2023-04-09T10:05:08.694Z,83.79
2023-04-09T10:10:14.088Z,83.89
2023-04-09T10:15:19.850Z,84.15
2023-04-09T10:20:29.744Z,83.35
2023-04-09T10:25:35.653Z,83.01
2023-04-09T10:30:40.925Z,83.35
2023-04-09T10:35:48.767Z,83.22
2023-04-09T10:40:54.764Z,82.63
2023-04-09T10:46:00.763Z,82.37
2023-04-09T10:51:06.613Z,81.81
2023-04-09T10:56:17.338Z,80.83
2023-04-09T11:01:24.290Z,80.68
2023-04-09T11:06:31.091Z,80.73
2023-04-09T11:11:36.981Z,79.40
2023-04-09T11:16:43.018Z,79.50
2023-04-09T11:21:49.015Z,79.82
2023-04-09T11:26:56.811Z,79.37
2023-04-09T11:32:02.669Z,79.42
2023-04-09T11:37:14.064Z,78.08
2023-04-09T11:42:19.524Z,77.43
2023-04-09T11:47:24.986Z,77.07
2023-04-09T11:52:32.549Z,76.23
2023-04-09T11:57:46.059Z,76.63
2023-04-09T12:02:58.610Z,75.78
2023-04-09T12:08:07.309Z,75.25
2023-04-09T12:13:13.646Z,74.70
2023-04-09T12:18:21.506Z,74.90
2023-04-09T12:23:26.869Z,74.38
2023-04-09T12:28:32.441Z,73.16
2023-04-09T12:33:38.967Z,72.74
2023-04-09T12:38:44.328Z,72.58
2023-04-09T12:43:49.840Z,71.59
2023-04-09T12:48:55.880Z,70.23
2023-04-09T12:54:03.989Z,69.71
2023-04-09T12:59:09.667Z,70.74
2023-04-09T13:04:15.497Z,69.50
2023-04-09T13:09:21.084Z,70.10
2023-04-09T13:14:26.593Z,69.18
2023-04-09T13:19:32.384Z,69.10
2023-04-09T13:24:38.155Z,68.69
2023-04-09T13:29:43.611Z,68.96
2023-04-09T13:34:49.371Z,68.72
2023-04-09T13:39:55.341Z,67.85
2023-04-09T13:45:00.984Z,67.48
2023-04-09T13:50:10.236Z,68.23
2023-04-09T13:55:15.765Z,67.34
2023-04-09T14:00:21.165Z,67.51
2023-04-09T14:05:26.512Z,67.48
2023-04-09T14:10:31.940Z,66.77
2023-04-09T14:15:37.488Z,66.42
2023-04-09T14:20:43.231Z,66.40
2023-04-09T14:25:48.543Z,66.66
2023-04-09T14:30:54.310Z,66.59
2023-04-09T14:35:59.755Z,66.31
2023-04-09T14:41:06.750Z,65.92
2023-04-09T14:46:12.147Z,65.83
2023-04-09T14:51:17.743Z,66.28
2023-04-09T14:56:23.250Z,66.20
2023-04-09T15:01:28.743Z,66.48
2023-04-09T15:06:34.246Z,66.14
2023-04-09T15:11:40.148Z,65.63
2023-04-09T15:16:45.463Z,65.84
2023-04-09T15:21:51.076Z,65.56
2023-04-09T15:26:56.976Z,65.82
2023-04-09T15:32:02.534Z,65.43
2023-04-09T15:37:08.003Z,65.00
2023-04-09T15:42:14.796Z,64.75
2023-04-09T15:47:20.372Z,64.48
2023-04-09T15:52:26.656Z,64.86
2023-04-09T15:57:32.311Z,64.53
2023-04-09T16:02:38.861Z,64.19
2023-04-09T16:07:44.390Z,64.16
2023-04-09T16:12:49.864Z,64.22
2023-04-09T16:17:55.364Z,64.34
2023-04-09T16:23:01.241Z,64.17
2023-04-09T16:28:06.865Z,64.10
2023-04-09T16:33:12.862Z,64.42
2023-04-09T16:38:18.225Z,64.66
2023-04-09T16:43:24.197Z,64.48
2023-04-09T16:48:29.469Z,64.80
2023-04-09T16:53:38.756Z,65.07
2023-04-09T16:58:45.936Z,65.02
2023-04-09T17:03:51.518Z,65.25
2023-04-09T17:08:57.417Z,65.77
2023-04-09T17:14:03.175Z,66.10
2023-04-09T17:19:08.916Z,66.25
2023-04-09T17:24:14.361Z,66.48
2023-04-09T17:29:19.609Z,66.75
2023-04-09T17:34:24.946Z,66.71
2023-04-09T17:39:30.378Z,66.94
2023-04-09T17:44:36.363Z,66.85
2023-04-09T17:49:41.871Z,66.91
2023-04-09T17:54:47.261Z,67.41
2023-04-09T17:59:52.834Z,67.72
2023-04-09T18:05:04.524Z,67.98
2023-04-09T18:10:09.391Z,68.19
2023-04-09T18:15:16.468Z,68.36
2023-04-09T18:20:21.919Z,68.56
2023-04-09T18:25:28.665Z,68.45
2023-04-09T18:30:36.106Z,68.53
2023-04-09T18:35:41.507Z,68.74
2023-04-09T18:40:46.932Z,68.83
2023-04-09T18:45:52.544Z,69.32
2023-04-09T18:50:58.999Z,69.52
2023-04-09T18:56:04.596Z,69.48
2023-04-09T19:01:13.487Z,69.98
2023-04-09T19:06:19.892Z,69.94
2023-04-09T19:11:25.984Z,70.01
2023-04-09T19:16:31.612Z,70.14
2023-04-09T19:21:37.105Z,70.31
2023-04-09T19:26:42.393Z,70.61
2023-04-09T19:31:47.977Z,70.62
2023-04-09T19:36:53.515Z,71.15
2023-04-09T19:41:58.773Z,71.25
2023-04-09T19:47:07.102Z,71.53
2023-04-09T19:52:12.518Z,71.77
2023-04-09T19:57:17.938Z,71.88
2023-04-09T20:02:24.009Z,71.76
2023-04-09T20:07:49.957Z,72.05
2023-04-09T20:13:14.419Z,72.25
2023-04-09T20:18:40.231Z,72.41
2023-04-09T20:24:05.886Z,72.58
2023-04-09T20:29:31.654Z,72.82
2023-04-09T20:34:49.596Z,72.81
2023-04-09T20:40:08.519Z,73.01
2023-04-09T20:45:34.433Z,73.29
2023-04-09T20:51:00.236Z,73.47
2023-04-09T20:56:34.499Z,73.66
2023-04-09T21:02:00.356Z,73.57
2023-04-09T21:07:26.115Z,73.39
2023-04-09T21:12:51.841Z,73.70
2023-04-09T21:18:17.452Z,74.33
2023-04-09T21:23:43.202Z,74.45
2023-04-09T21:29:08.801Z,74.22
2023-04-09T21:34:34.576Z,74.54
2023-04-09T21:40:00.211Z,74.61
2023-04-09T21:45:19.575Z,74.30
2023-04-09T21:50:45.542Z,74.66
2023-04-09T21:56:11.265Z,74.94
2023-04-09T22:01:37.212Z,74.89
2023-04-09T22:07:05.176Z,74.97
2023-04-09T22:12:30.937Z,75.16
2023-04-09T22:17:56.735Z,75.41
2023-04-09T22:23:22.418Z,75.42
2023-04-09T22:28:48.182Z,75.46
2023-04-09T22:34:20.577Z,75.44
2023-04-09T22:39:39.709Z,75.56
2023-04-09T22:45:05.394Z,75.45
2023-04-09T22:50:31.934Z,75.63
2023-04-09T22:55:57.448Z,75.94
2023-04-09T23:01:21.825Z,75.77
2023-04-09T23:06:48.039Z,75.95
2023-04-09T23:12:13.745Z,75.90
2023-04-09T23:17:39.467Z,76.02
2023-04-09T23:23:05.556Z,76.13
2023-04-09T23:28:31.201Z,76.34
2023-04-09T23:33:56.846Z,76.50
2023-04-09T23:39:22.762Z,76.88
2023-04-09T23:44:48.415Z,76.99
2023-04-09T23:50:14.298Z,77.04
2023-04-09T23:55:39.980Z,77.06
